sensor_id;sensor_type;location;lat;lon;timestamp;P1;durP1;ratioP1;P2;durP2;ratioP2
9007;SDS011;62813;51.424;6.762;2023-03-20T00:02:09;16.13;;;11.83;;
9007;SDS011;62813;51.424;6.762;2023-03-20T00:04:43;15.90;;;11.93;;
9007;SDS011;62813;51.424;6.762;2023-03-20T00:07:10;17.77;;;11.60;;
9007;SDS011;62813;51.424;6.762;2023-03-20T00:09:38;15.47;;;10.83;;
9007;SDS011;62813;51.424;6.762;2023-03-20T00:12:04;14.53;;;10.87;;
9007;SDS011;62813;51.424;6.762;2023-03-20T00:14:32;11.90;;;9.80;;
9007;SDS011;62813;51.424;6.762;2023-03-20T00:16:59;11.57;;;10.17;;
9007;SDS011;62813;51.424;6.762;2023-03-20T00:19:27;11.70;;;9.03;;
9007;SDS011;62813;51.424;6.762;2023-03-20T00:21:54;11.37;;;9.23;;
9007;SDS011;62813;51.424;6.762;2023-03-20T00:24:22;11.97;;;9.53;;
9007;SDS011;62813;51.424;6.762;2023-03-20T00:26:50;11.90;;;9.97;;
9007;SDS011;62813;51.424;6.762;2023-03-20T00:29:28;11.60;;;9.77;;
9007;SDS011;62813;51.424;6.762;2023-03-20T00:31:57;12.67;;;10.57;;
9007;SDS011;62813;51.424;6.762;2023-03-20T00:34:25;11.27;;;10.00;;
9007;SDS011;62813;51.424;6.762;2023-03-20T00:36:55;11.00;;;9.30;;
9007;SDS011;62813;51.424;6.762;2023-03-20T00:39:22;9.33;;;8.00;;
9007;SDS011;62813;51.424;6.762;2023-03-20T00:42:13;9.30;;;7.47;;
9007;SDS011;62813;51.424;6.762;2023-03-20T00:44:47;8.63;;;7.07;;
9007;SDS011;62813;51.424;6.762;2023-03-20T00:47:19;10.27;;;6.90;;
9007;SDS011;62813;51.424;6.762;2023-03-20T00:49:48;8.47;;;7.10;;
9007;SDS011;62813;51.424;6.762;2023-03-20T00:52:17;8.60;;;7.70;;
9007;SDS011;62813;51.424;6.762;2023-03-20T00:54:44;9.40;;;7.77;;
9007;SDS011;62813;51.424;6.762;2023-03-20T00:59:52;9.47;;;7.63;;
9007;SDS011;62813;51.424;6.762;2023-03-20T01:02:22;8.70;;;7.70;;
9007;SDS011;62813;51.424;6.762;2023-03-20T01:04:54;8.63;;;7.40;;
9007;SDS011;62813;51.424;6.762;2023-03-20T01:07:21;8.60;;;7.70;;
9007;SDS011;62813;51.424;6.762;2023-03-20T01:09:47;8.43;;;7.63;;
9007;SDS011;62813;51.424;6.762;2023-03-20T01:12:14;8.77;;;7.47;;
9007;SDS011;62813;51.424;6.762;2023-03-20T01:14:42;8.67;;;7.00;;
9007;SDS011;62813;51.424;6.762;2023-03-20T01:17:19;9.27;;;7.70;;
9007;SDS011;62813;51.424;6.762;2023-03-20T01:19:46;9.63;;;7.97;;
9007;SDS011;62813;51.424;6.762;2023-03-20T01:22:13;9.77;;;7.90;;
9007;SDS011;62813;51.424;6.762;2023-03-20T01:24:41;8.73;;;7.57;;
9007;SDS011;62813;51.424;6.762;2023-03-20T01:27:11;9.23;;;7.60;;
9007;SDS011;62813;51.424;6.762;2023-03-20T01:29:41;10.03;;;7.77;;
9007;SDS011;62813;51.424;6.762;2023-03-20T01:32:09;10.57;;;7.83;;
9007;SDS011;62813;51.424;6.762;2023-03-20T01:34:38;9.77;;;7.23;;
9007;SDS011;62813;51.424;6.762;2023-03-20T01:37:05;11.93;;;7.77;;
9007;SDS011;62813;51.424;6.762;2023-03-20T01:39:38;8.93;;;7.23;;
9007;SDS011;62813;51.424;6.762;2023-03-20T01:42:07;7.57;;;6.77;;
9007;SDS011;62813;51.424;6.762;2023-03-20T01:44:34;9.07;;;6.87;;
9007;SDS011;62813;51.424;6.762;2023-03-20T01:47:04;8.57;;;7.43;;
9007;SDS011;62813;51.424;6.762;2023-03-20T01:52:45;10.20;;;7.13;;
9007;SDS011;62813;51.424;6.762;2023-03-20T01:55:13;8.53;;;7.00;;
9007;SDS011;62813;51.424;6.762;2023-03-20T01:57:39;7.67;;;6.40;;
9007;SDS011;62813;51.424;6.762;2023-03-20T02:00:10;9.97;;;7.63;;
9007;SDS011;62813;51.424;6.762;2023-03-20T02:02:41;8.00;;;7.07;;
9007;SDS011;62813;51.424;6.762;2023-03-20T02:05:10;7.60;;;6.37;;
9007;SDS011;62813;51.424;6.762;2023-03-20T02:07:39;7.47;;;6.07;;
9007;SDS011;62813;51.424;6.762;2023-03-20T02:10:08;8.00;;;6.57;;
9007;SDS011;62813;51.424;6.762;2023-03-20T02:12:37;7.73;;;6.53;;
9007;SDS011;62813;51.424;6.762;2023-03-20T02:15:05;10.40;;;6.77;;
9007;SDS011;62813;51.424;6.762;2023-03-20T02:17:32;7.80;;;6.60;;
9007;SDS011;62813;51.424;6.762;2023-03-20T02:20:05;7.73;;;6.80;;
9007;SDS011;62813;51.424;6.762;2023-03-20T02:25:48;9.90;;;6.43;;
9007;SDS011;62813;51.424;6.762;2023-03-20T02:31:41;7.57;;;6.40;;
9007;SDS011;62813;51.424;6.762;2023-03-20T02:34:38;9.07;;;6.97;;
9007;SDS011;62813;51.424;6.762;2023-03-20T02:46:21;6.60;;;5.80;;
9007;SDS011;62813;51.424;6.762;2023-03-20T02:52:09;8.90;;;6.50;;
9007;SDS011;62813;51.424;6.762;2023-03-20T02:55:04;8.43;;;6.40;;
9007;SDS011;62813;51.424;6.762;2023-03-20T03:03:43;8.07;;;6.63;;
9007;SDS011;62813;51.424;6.762;2023-03-20T03:09:05;9.47;;;6.87;;
9007;SDS011;62813;51.424;6.762;2023-03-20T03:11:47;7.53;;;6.27;;
9007;SDS011;62813;51.424;6.762;2023-03-20T03:14:29;8.67;;;7.10;;
9007;SDS011;62813;51.424;6.762;2023-03-20T03:17:03;9.97;;;7.43;;
9007;SDS011;62813;51.424;6.762;2023-03-20T03:19:37;10.20;;;7.17;;
9007;SDS011;62813;51.424;6.762;2023-03-20T03:22:14;9.33;;;7.47;;
9007;SDS011;62813;51.424;6.762;2023-03-20T03:24:51;9.60;;;7.53;;
9007;SDS011;62813;51.424;6.762;2023-03-20T03:27:30;8.60;;;7.50;;
9007;SDS011;62813;51.424;6.762;2023-03-20T03:30:10;9.73;;;7.40;;
9007;SDS011;62813;51.424;6.762;2023-03-20T03:32:41;8.30;;;7.37;;
9007;SDS011;62813;51.424;6.762;2023-03-20T03:35:15;9.93;;;7.60;;
9007;SDS011;62813;51.424;6.762;2023-03-20T03:37:49;9.77;;;8.10;;
9007;SDS011;62813;51.424;6.762;2023-03-20T03:40:18;11.00;;;8.03;;
9007;SDS011;62813;51.424;6.762;2023-03-20T03:43:17;16.07;;;8.60;;
9007;SDS011;62813;51.424;6.762;2023-03-20T03:45:49;9.90;;;8.30;;
9007;SDS011;62813;51.424;6.762;2023-03-20T03:48:22;13.10;;;8.77;;
9007;SDS011;62813;51.424;6.762;2023-03-20T03:50:56;10.53;;;8.70;;
9007;SDS011;62813;51.424;6.762;2023-03-20T03:53:31;12.00;;;8.67;;
9007;SDS011;62813;51.424;6.762;2023-03-20T03:56:05;12.67;;;9.10;;
9007;SDS011;62813;51.424;6.762;2023-03-20T03:58:36;11.27;;;8.67;;
9007;SDS011;62813;51.424;6.762;2023-03-20T04:01:07;11.13;;;8.93;;
9007;SDS011;62813;51.424;6.762;2023-03-20T04:03:39;11.97;;;8.93;;
9007;SDS011;62813;51.424;6.762;2023-03-20T04:06:12;11.83;;;9.10;;
9007;SDS011;62813;51.424;6.762;2023-03-20T04:08:41;11.03;;;9.27;;
9007;SDS011;62813;51.424;6.762;2023-03-20T04:11:18;13.40;;;9.37;;
9007;SDS011;62813;51.424;6.762;2023-03-20T04:13:48;12.00;;;8.97;;
9007;SDS011;62813;51.424;6.762;2023-03-20T04:16:19;13.77;;;9.97;;
9007;SDS011;62813;51.424;6.762;2023-03-20T04:18:47;12.03;;;9.07;;
9007;SDS011;62813;51.424;6.762;2023-03-20T04:21:16;10.70;;;9.60;;
9007;SDS011;62813;51.424;6.762;2023-03-20T04:23:43;13.50;;;9.20;;
9007;SDS011;62813;51.424;6.762;2023-03-20T04:26:09;12.13;;;9.83;;
9007;SDS011;62813;51.424;6.762;2023-03-20T04:28:36;13.07;;;9.97;;
9007;SDS011;62813;51.424;6.762;2023-03-20T04:31:03;13.50;;;10.40;;
9007;SDS011;62813;51.424;6.762;2023-03-20T04:33:30;14.43;;;10.83;;
9007;SDS011;62813;51.424;6.762;2023-03-20T04:35:57;15.37;;;11.13;;
9007;SDS011;62813;51.424;6.762;2023-03-20T04:38:24;14.63;;;12.13;;
9007;SDS011;62813;51.424;6.762;2023-03-20T04:40:52;17.73;;;12.00;;
9007;SDS011;62813;51.424;6.762;2023-03-20T04:43:18;15.13;;;12.03;;
9007;SDS011;62813;51.424;6.762;2023-03-20T04:45:45;18.53;;;12.47;;
9007;SDS011;62813;51.424;6.762;2023-03-20T04:48:12;18.27;;;13.23;;
9007;SDS011;62813;51.424;6.762;2023-03-20T04:50:39;18.93;;;13.33;;
9007;SDS011;62813;51.424;6.762;2023-03-20T04:53:06;18.57;;;13.53;;
9007;SDS011;62813;51.424;6.762;2023-03-20T04:55:33;17.43;;;13.70;;
9007;SDS011;62813;51.424;6.762;2023-03-20T04:58:03;19.30;;;13.70;;
9007;SDS011;62813;51.424;6.762;2023-03-20T05:00:30;20.60;;;14.43;;
9007;SDS011;62813;51.424;6.762;2023-03-20T05:02:56;19.73;;;14.47;;
9007;SDS011;62813;51.424;6.762;2023-03-20T05:05:24;19.40;;;13.73;;
9007;SDS011;62813;51.424;6.762;2023-03-20T05:07:51;18.67;;;14.10;;
9007;SDS011;62813;51.424;6.762;2023-03-20T05:10:17;19.57;;;15.13;;
9007;SDS011;62813;51.424;6.762;2023-03-20T05:12:45;19.57;;;14.67;;
9007;SDS011;62813;51.424;6.762;2023-03-20T05:15:12;19.13;;;14.53;;
9007;SDS011;62813;51.424;6.762;2023-03-20T05:17:40;16.90;;;13.27;;
9007;SDS011;62813;51.424;6.762;2023-03-20T05:20:07;17.27;;;13.73;;
9007;SDS011;62813;51.424;6.762;2023-03-20T05:22:34;18.93;;;12.67;;
9007;SDS011;62813;51.424;6.762;2023-03-20T05:25:01;16.50;;;13.07;;
9007;SDS011;62813;51.424;6.762;2023-03-20T05:27:28;14.53;;;12.07;;
9007;SDS011;62813;51.424;6.762;2023-03-20T05:29:55;15.37;;;11.57;;
9007;SDS011;62813;51.424;6.762;2023-03-20T05:32:22;15.33;;;11.57;;
9007;SDS011;62813;51.424;6.762;2023-03-20T05:34:49;16.40;;;11.83;;
9007;SDS011;62813;51.424;6.762;2023-03-20T05:37:16;19.87;;;12.07;;
9007;SDS011;62813;51.424;6.762;2023-03-20T05:39:42;15.43;;;10.33;;
9007;SDS011;62813;51.424;6.762;2023-03-20T05:42:09;17.03;;;11.30;;
9007;SDS011;62813;51.424;6.762;2023-03-20T05:44:36;15.60;;;11.03;;
9007;SDS011;62813;51.424;6.762;2023-03-20T05:47:03;12.20;;;9.53;;
9007;SDS011;62813;51.424;6.762;2023-03-20T05:49:30;15.50;;;10.00;;
9007;SDS011;62813;51.424;6.762;2023-03-20T05:51:57;12.70;;;9.60;;
9007;SDS011;62813;51.424;6.762;2023-03-20T05:54:24;14.97;;;10.00;;
9007;SDS011;62813;51.424;6.762;2023-03-20T05:56:51;13.90;;;9.20;;
9007;SDS011;62813;51.424;6.762;2023-03-20T05:59:18;11.63;;;8.97;;
9007;SDS011;62813;51.424;6.762;2023-03-20T06:01:44;11.17;;;8.73;;
9007;SDS011;62813;51.424;6.762;2023-03-20T06:04:12;12.63;;;8.83;;
9007;SDS011;62813;51.424;6.762;2023-03-20T06:06:39;14.73;;;9.13;;
9007;SDS011;62813;51.424;6.762;2023-03-20T06:09:10;11.87;;;8.83;;
9007;SDS011;62813;51.424;6.762;2023-03-20T06:11:37;10.17;;;7.80;;
9007;SDS011;62813;51.424;6.762;2023-03-20T06:14:03;14.63;;;9.17;;
9007;SDS011;62813;51.424;6.762;2023-03-20T06:16:32;12.37;;;8.27;;
9007;SDS011;62813;51.424;6.762;2023-03-20T06:19:00;10.03;;;7.87;;
9007;SDS011;62813;51.424;6.762;2023-03-20T06:21:27;10.50;;;7.63;;
9007;SDS011;62813;51.424;6.762;2023-03-20T06:23:54;12.50;;;8.33;;
9007;SDS011;62813;51.424;6.762;2023-03-20T06:26:23;10.17;;;7.83;;
9007;SDS011;62813;51.424;6.762;2023-03-20T06:28:50;10.10;;;7.27;;
9007;SDS011;62813;51.424;6.762;2023-03-20T06:31:17;11.50;;;7.60;;
9007;SDS011;62813;51.424;6.762;2023-03-20T06:33:49;9.77;;;7.13;;
9007;SDS011;62813;51.424;6.762;2023-03-20T06:36:16;13.57;;;7.27;;
9007;SDS011;62813;51.424;6.762;2023-03-20T06:38:42;10.47;;;6.27;;
9007;SDS011;62813;51.424;6.762;2023-03-20T06:41:11;10.30;;;6.77;;
9007;SDS011;62813;51.424;6.762;2023-03-20T06:43:59;11.63;;;7.40;;
9007;SDS011;62813;51.424;6.762;2023-03-20T06:46:28;10.43;;;7.27;;
9007;SDS011;62813;51.424;6.762;2023-03-20T06:48:55;11.43;;;7.27;;
9007;SDS011;62813;51.424;6.762;2023-03-20T06:51:22;9.63;;;7.20;;
9007;SDS011;62813;51.424;6.762;2023-03-20T06:53:49;10.80;;;7.57;;
9007;SDS011;62813;51.424;6.762;2023-03-20T06:56:16;11.23;;;7.67;;
9007;SDS011;62813;51.424;6.762;2023-03-20T06:58:44;10.60;;;7.10;;
9007;SDS011;62813;51.424;6.762;2023-03-20T07:01:12;10.10;;;7.37;;
9007;SDS011;62813;51.424;6.762;2023-03-20T07:03:44;11.07;;;8.17;;
9007;SDS011;62813;51.424;6.762;2023-03-20T07:06:11;11.50;;;7.97;;
9007;SDS011;62813;51.424;6.762;2023-03-20T07:08:39;13.43;;;8.27;;
9007;SDS011;62813;51.424;6.762;2023-03-20T07:11:08;16.83;;;9.27;;
9007;SDS011;62813;51.424;6.762;2023-03-20T07:13:36;11.83;;;8.10;;
9007;SDS011;62813;51.424;6.762;2023-03-20T07:16:06;13.40;;;9.10;;
9007;SDS011;62813;51.424;6.762;2023-03-20T07:18:33;17.67;;;9.13;;
9007;SDS011;62813;51.424;6.762;2023-03-20T07:21:01;13.23;;;9.23;;
9007;SDS011;62813;51.424;6.762;2023-03-20T07:23:29;18.63;;;10.67;;
9007;SDS011;62813;51.424;6.762;2023-03-20T07:25:57;15.30;;;10.30;;
9007;SDS011;62813;51.424;6.762;2023-03-20T07:28:24;14.70;;;9.77;;
9007;SDS011;62813;51.424;6.762;2023-03-20T07:30:51;17.37;;;10.83;;
9007;SDS011;62813;51.424;6.762;2023-03-20T07:33:17;18.43;;;10.03;;
9007;SDS011;62813;51.424;6.762;2023-03-20T07:35:44;13.43;;;9.10;;
9007;SDS011;62813;51.424;6.762;2023-03-20T07:38:13;18.03;;;9.83;;
9007;SDS011;62813;51.424;6.762;2023-03-20T07:40:40;13.53;;;9.50;;
9007;SDS011;62813;51.424;6.762;2023-03-20T07:43:07;18.10;;;9.80;;
9007;SDS011;62813;51.424;6.762;2023-03-20T07:45:34;16.77;;;9.50;;
9007;SDS011;62813;51.424;6.762;2023-03-20T07:48:01;12.57;;;9.03;;
9007;SDS011;62813;51.424;6.762;2023-03-20T07:50:28;16.67;;;9.57;;
9007;SDS011;62813;51.424;6.762;2023-03-20T07:52:55;14.87;;;9.73;;
9007;SDS011;62813;51.424;6.762;2023-03-20T07:55:22;14.43;;;9.70;;
9007;SDS011;62813;51.424;6.762;2023-03-20T07:57:49;15.23;;;9.83;;
9007;SDS011;62813;51.424;6.762;2023-03-20T08:00:16;13.73;;;8.93;;
9007;SDS011;62813;51.424;6.762;2023-03-20T08:02:44;16.43;;;9.70;;
9007;SDS011;62813;51.424;6.762;2023-03-20T08:05:11;14.57;;;9.93;;
9007;SDS011;62813;51.424;6.762;2023-03-20T08:07:38;18.63;;;9.90;;
9007;SDS011;62813;51.424;6.762;2023-03-20T08:10:09;18.17;;;9.67;;
9007;SDS011;62813;51.424;6.762;2023-03-20T08:12:36;12.90;;;8.63;;
9007;SDS011;62813;51.424;6.762;2023-03-20T08:15:03;13.13;;;7.60;;
9007;SDS011;62813;51.424;6.762;2023-03-20T08:17:33;14.43;;;8.47;;
9007;SDS011;62813;51.424;6.762;2023-03-20T08:19:59;12.10;;;7.83;;
9007;SDS011;62813;51.424;6.762;2023-03-20T08:22:29;14.73;;;7.03;;
9007;SDS011;62813;51.424;6.762;2023-03-20T08:24:56;12.93;;;7.13;;
9007;SDS011;62813;51.424;6.762;2023-03-20T08:27:22;9.77;;;6.37;;
9007;SDS011;62813;51.424;6.762;2023-03-20T08:29:50;16.57;;;7.17;;
9007;SDS011;62813;51.424;6.762;2023-03-20T08:32:17;9.63;;;5.83;;
9007;SDS011;62813;51.424;6.762;2023-03-20T08:34:43;10.73;;;6.03;;
9007;SDS011;62813;51.424;6.762;2023-03-20T08:37:13;16.27;;;7.17;;
9007;SDS011;62813;51.424;6.762;2023-03-20T08:39:42;10.27;;;5.50;;
9007;SDS011;62813;51.424;6.762;2023-03-20T08:42:09;10.67;;;6.47;;
9007;SDS011;62813;51.424;6.762;2023-03-20T08:44:36;9.47;;;5.50;;
9007;SDS011;62813;51.424;6.762;2023-03-20T08:47:03;15.37;;;6.00;;
9007;SDS011;62813;51.424;6.762;2023-03-20T08:49:30;14.03;;;5.97;;
9007;SDS011;62813;51.424;6.762;2023-03-20T08:51:57;9.23;;;5.07;;
9007;SDS011;62813;51.424;6.762;2023-03-20T08:54:25;10.40;;;5.30;;
9007;SDS011;62813;51.424;6.762;2023-03-20T08:56:52;11.83;;;4.73;;
9007;SDS011;62813;51.424;6.762;2023-03-20T08:59:19;13.83;;;5.30;;
9007;SDS011;62813;51.424;6.762;2023-03-20T09:01:46;9.03;;;4.50;;
9007;SDS011;62813;51.424;6.762;2023-03-20T09:04:15;8.40;;;4.30;;
9007;SDS011;62813;51.424;6.762;2023-03-20T09:06:43;10.00;;;4.20;;
9007;SDS011;62813;51.424;6.762;2023-03-20T09:09:09;5.90;;;3.50;;
9007;SDS011;62813;51.424;6.762;2023-03-20T09:11:36;8.90;;;3.40;;
9007;SDS011;62813;51.424;6.762;2023-03-20T09:14:03;5.03;;;2.87;;
9007;SDS011;62813;51.424;6.762;2023-03-20T09:16:29;6.13;;;2.70;;
9007;SDS011;62813;51.424;6.762;2023-03-20T09:18:56;6.83;;;3.17;;
9007;SDS011;62813;51.424;6.762;2023-03-20T09:21:23;6.90;;;3.00;;
9007;SDS011;62813;51.424;6.762;2023-03-20T09:23:49;5.43;;;2.80;;
9007;SDS011;62813;51.424;6.762;2023-03-20T09:26:16;6.47;;;2.87;;
9007;SDS011;62813;51.424;6.762;2023-03-20T09:28:43;8.03;;;3.10;;
9007;SDS011;62813;51.424;6.762;2023-03-20T09:31:09;5.87;;;2.87;;
9007;SDS011;62813;51.424;6.762;2023-03-20T09:33:37;11.23;;;2.73;;
9007;SDS011;62813;51.424;6.762;2023-03-20T09:36:03;6.57;;;2.30;;
9007;SDS011;62813;51.424;6.762;2023-03-20T09:38:30;5.50;;;2.47;;
9007;SDS011;62813;51.424;6.762;2023-03-20T09:41:00;4.17;;;2.50;;
9007;SDS011;62813;51.424;6.762;2023-03-20T09:51:50;6.07;;;2.20;;
9007;SDS011;62813;51.424;6.762;2023-03-20T09:57:25;6.63;;;2.23;;
9007;SDS011;62813;51.424;6.762;2023-03-20T09:59:58;6.13;;;2.43;;
9007;SDS011;62813;51.424;6.762;2023-03-20T10:02:35;4.07;;;2.00;;
9007;SDS011;62813;51.424;6.762;2023-03-20T10:05:16;5.87;;;2.53;;
9007;SDS011;62813;51.424;6.762;2023-03-20T10:07:47;4.43;;;2.20;;
9007;SDS011;62813;51.424;6.762;2023-03-20T10:10:15;5.33;;;2.53;;
9007;SDS011;62813;51.424;6.762;2023-03-20T10:15:21;6.80;;;2.47;;
9007;SDS011;62813;51.424;6.762;2023-03-20T10:18:17;5.63;;;2.43;;
9007;SDS011;62813;51.424;6.762;2023-03-20T10:21:00;8.00;;;2.83;;
9007;SDS011;62813;51.424;6.762;2023-03-20T10:23:33;9.20;;;2.63;;
9007;SDS011;62813;51.424;6.762;2023-03-20T10:26:10;6.00;;;3.10;;
9007;SDS011;62813;51.424;6.762;2023-03-20T10:28:46;4.43;;;2.40;;
9007;SDS011;62813;51.424;6.762;2023-03-20T10:34:05;5.37;;;2.57;;
9007;SDS011;62813;51.424;6.762;2023-03-20T10:39:50;6.30;;;2.27;;
9007;SDS011;62813;51.424;6.762;2023-03-20T10:42:27;6.40;;;2.23;;
9007;SDS011;62813;51.424;6.762;2023-03-20T10:45:06;6.13;;;2.43;;
9007;SDS011;62813;51.424;6.762;2023-03-20T10:47:53;4.07;;;1.90;;
9007;SDS011;62813;51.424;6.762;2023-03-20T10:50:28;4.83;;;2.37;;
9007;SDS011;62813;51.424;6.762;2023-03-20T10:53:01;5.93;;;1.80;;
9007;SDS011;62813;51.424;6.762;2023-03-20T10:55:39;5.77;;;2.00;;
9007;SDS011;62813;51.424;6.762;2023-03-20T10:58:22;5.23;;;2.13;;
9007;SDS011;62813;51.424;6.762;2023-03-20T11:00:53;5.27;;;1.73;;
9007;SDS011;62813;51.424;6.762;2023-03-20T11:03:23;5.53;;;2.10;;
9007;SDS011;62813;51.424;6.762;2023-03-20T11:06:01;5.10;;;2.20;;
9007;SDS011;62813;51.424;6.762;2023-03-20T11:08:38;6.10;;;1.90;;
9007;SDS011;62813;51.424;6.762;2023-03-20T11:11:11;5.80;;;1.83;;
9007;SDS011;62813;51.424;6.762;2023-03-20T11:13:41;8.77;;;2.30;;
9007;SDS011;62813;51.424;6.762;2023-03-20T11:18:48;5.33;;;2.37;;
9007;SDS011;62813;51.424;6.762;2023-03-20T11:21:17;5.00;;;2.00;;
9007;SDS011;62813;51.424;6.762;2023-03-20T11:23:46;6.07;;;2.23;;
9007;SDS011;62813;51.424;6.762;2023-03-20T11:26:17;9.97;;;2.37;;
9007;SDS011;62813;51.424;6.762;2023-03-20T11:28:54;4.83;;;1.80;;
9007;SDS011;62813;51.424;6.762;2023-03-20T11:36:31;6.40;;;2.20;;
9007;SDS011;62813;51.424;6.762;2023-03-20T11:39:09;6.93;;;2.27;;
9007;SDS011;62813;51.424;6.762;2023-03-20T11:41:51;6.37;;;2.37;;
9007;SDS011;62813;51.424;6.762;2023-03-20T11:44:20;8.40;;;2.40;;
9007;SDS011;62813;51.424;6.762;2023-03-20T11:47:02;4.70;;;2.73;;
9007;SDS011;62813;51.424;6.762;2023-03-20T11:49:31;7.93;;;2.40;;
9007;SDS011;62813;51.424;6.762;2023-03-20T11:52:11;6.57;;;2.33;;
9007;SDS011;62813;51.424;6.762;2023-03-20T11:54:44;4.67;;;2.53;;
9007;SDS011;62813;51.424;6.762;2023-03-20T12:02:32;7.37;;;2.60;;
9007;SDS011;62813;51.424;6.762;2023-03-20T12:05:01;6.10;;;2.70;;
9007;SDS011;62813;51.424;6.762;2023-03-20T12:07:42;5.87;;;2.47;;
9007;SDS011;62813;51.424;6.762;2023-03-20T12:10:11;6.90;;;2.70;;
9007;SDS011;62813;51.424;6.762;2023-03-20T12:12:50;8.53;;;2.53;;
9007;SDS011;62813;51.424;6.762;2023-03-20T12:15:35;5.30;;;2.20;;
9007;SDS011;62813;51.424;6.762;2023-03-20T12:18:24;6.67;;;2.80;;
9007;SDS011;62813;51.424;6.762;2023-03-20T12:23:36;5.97;;;3.10;;
9007;SDS011;62813;51.424;6.762;2023-03-20T12:26:10;6.07;;;2.73;;
9007;SDS011;62813;51.424;6.762;2023-03-20T12:34:14;6.47;;;2.93;;
9007;SDS011;62813;51.424;6.762;2023-03-20T12:36:47;6.73;;;2.83;;
9007;SDS011;62813;51.424;6.762;2023-03-20T12:39:19;7.17;;;2.70;;
9007;SDS011;62813;51.424;6.762;2023-03-20T12:45:00;7.37;;;3.20;;
9007;SDS011;62813;51.424;6.762;2023-03-20T12:56:30;10.50;;;3.60;;
9007;SDS011;62813;51.424;6.762;2023-03-20T12:59:08;9.20;;;3.43;;
9007;SDS011;62813;51.424;6.762;2023-03-20T13:01:49;12.07;;;3.50;;
9007;SDS011;62813;51.424;6.762;2023-03-20T13:07:17;7.33;;;3.13;;
9007;SDS011;62813;51.424;6.762;2023-03-20T13:23:33;8.70;;;3.00;;
9007;SDS011;62813;51.424;6.762;2023-03-20T13:29:18;4.57;;;2.57;;
9007;SDS011;62813;51.424;6.762;2023-03-20T13:37:29;6.83;;;3.50;;
9007;SDS011;62813;51.424;6.762;2023-03-20T13:42:44;11.97;;;4.33;;
9007;SDS011;62813;51.424;6.762;2023-03-20T13:45:20;8.03;;;3.60;;
9007;SDS011;62813;51.424;6.762;2023-03-20T13:47:55;9.60;;;3.87;;
9007;SDS011;62813;51.424;6.762;2023-03-20T13:50:38;8.90;;;3.47;;
9007;SDS011;62813;51.424;6.762;2023-03-20T13:53:22;9.63;;;3.73;;
9007;SDS011;62813;51.424;6.762;2023-03-20T13:56:39;8.37;;;3.43;;
9007;SDS011;62813;51.424;6.762;2023-03-20T13:58:56;5.20;;;3.10;;
9007;SDS011;62813;51.424;6.762;2023-03-20T14:04:43;6.07;;;3.10;;
9007;SDS011;62813;51.424;6.762;2023-03-20T14:12:48;11.57;;;2.73;;
9007;SDS011;62813;51.424;6.762;2023-03-20T14:15:17;6.23;;;2.80;;
9007;SDS011;62813;51.424;6.762;2023-03-20T14:17:45;8.83;;;2.73;;
9007;SDS011;62813;51.424;6.762;2023-03-20T14:23:06;10.80;;;2.60;;
9007;SDS011;62813;51.424;6.762;2023-03-20T14:25:46;8.10;;;2.87;;
9007;SDS011;62813;51.424;6.762;2023-03-20T14:30:41;9.40;;;3.13;;
9007;SDS011;62813;51.424;6.762;2023-03-20T14:40:59;8.43;;;2.80;;
9007;SDS011;62813;51.424;6.762;2023-03-20T14:43:41;8.47;;;3.47;;
9007;SDS011;62813;51.424;6.762;2023-03-20T14:52:11;10.37;;;3.40;;
9007;SDS011;62813;51.424;6.762;2023-03-20T14:54:53;8.57;;;3.43;;
9007;SDS011;62813;51.424;6.762;2023-03-20T14:57:30;12.47;;;3.40;;
9007;SDS011;62813;51.424;6.762;2023-03-20T15:00:19;8.80;;;2.90;;
9007;SDS011;62813;51.424;6.762;2023-03-20T15:02:51;9.67;;;3.40;;
9007;SDS011;62813;51.424;6.762;2023-03-20T15:05:32;12.47;;;3.90;;
9007;SDS011;62813;51.424;6.762;2023-03-20T15:08:07;10.70;;;3.40;;
9007;SDS011;62813;51.424;6.762;2023-03-20T15:10:45;14.10;;;4.00;;
9007;SDS011;62813;51.424;6.762;2023-03-20T15:13:15;14.27;;;4.07;;
9007;SDS011;62813;51.424;6.762;2023-03-20T15:18:30;10.67;;;3.60;;
9007;SDS011;62813;51.424;6.762;2023-03-20T15:21:02;10.60;;;3.60;;
9007;SDS011;62813;51.424;6.762;2023-03-20T15:23:29;10.83;;;3.80;;
9007;SDS011;62813;51.424;6.762;2023-03-20T15:25:56;12.70;;;3.70;;
9007;SDS011;62813;51.424;6.762;2023-03-20T15:28:25;7.10;;;3.80;;
9007;SDS011;62813;51.424;6.762;2023-03-20T15:30:55;9.37;;;3.60;;
9007;SDS011;62813;51.424;6.762;2023-03-20T15:33:27;12.20;;;3.77;;
9007;SDS011;62813;51.424;6.762;2023-03-20T15:36:08;14.87;;;4.37;;
9007;SDS011;62813;51.424;6.762;2023-03-20T15:38:40;9.20;;;3.70;;
9007;SDS011;62813;51.424;6.762;2023-03-20T15:41:07;9.83;;;3.50;;
9007;SDS011;62813;51.424;6.762;2023-03-20T15:43:33;11.83;;;3.87;;
9007;SDS011;62813;51.424;6.762;2023-03-20T15:46:01;8.07;;;3.40;;
9007;SDS011;62813;51.424;6.762;2023-03-20T15:48:46;9.80;;;2.93;;
9007;SDS011;62813;51.424;6.762;2023-03-20T15:51:14;8.90;;;3.63;;
9007;SDS011;62813;51.424;6.762;2023-03-20T15:53:41;15.33;;;4.13;;
9007;SDS011;62813;51.424;6.762;2023-03-20T15:56:15;9.57;;;4.10;;
9007;SDS011;62813;51.424;6.762;2023-03-20T15:58:46;9.17;;;4.10;;
9007;SDS011;62813;51.424;6.762;2023-03-20T16:01:19;17.43;;;4.43;;
9007;SDS011;62813;51.424;6.762;2023-03-20T16:03:49;12.73;;;4.30;;
9007;SDS011;62813;51.424;6.762;2023-03-20T16:06:20;8.97;;;3.80;;
9007;SDS011;62813;51.424;6.762;2023-03-20T16:09:00;11.43;;;4.30;;
9007;SDS011;62813;51.424;6.762;2023-03-20T16:11:40;9.83;;;4.70;;
9007;SDS011;62813;51.424;6.762;2023-03-20T16:14:11;12.60;;;4.53;;
9007;SDS011;62813;51.424;6.762;2023-03-20T16:16:41;12.00;;;4.20;;
9007;SDS011;62813;51.424;6.762;2023-03-20T16:19:09;13.10;;;4.23;;
9007;SDS011;62813;51.424;6.762;2023-03-20T16:21:38;8.43;;;3.60;;
9007;SDS011;62813;51.424;6.762;2023-03-20T16:24:09;10.93;;;4.57;;
9007;SDS011;62813;51.424;6.762;2023-03-20T16:26:43;10.93;;;5.17;;
9007;SDS011;62813;51.424;6.762;2023-03-20T16:29:13;11.20;;;4.67;;
9007;SDS011;62813;51.424;6.762;2023-03-20T16:31:44;10.80;;;4.93;;
9007;SDS011;62813;51.424;6.762;2023-03-20T16:34:20;10.67;;;4.37;;
9007;SDS011;62813;51.424;6.762;2023-03-20T16:37:20;11.60;;;4.30;;
9007;SDS011;62813;51.424;6.762;2023-03-20T16:40:00;10.13;;;3.97;;
9007;SDS011;62813;51.424;6.762;2023-03-20T16:42:29;11.67;;;3.97;;
9007;SDS011;62813;51.424;6.762;2023-03-20T16:44:56;9.73;;;4.20;;
9007;SDS011;62813;51.424;6.762;2023-03-20T16:47:26;10.90;;;4.20;;
9007;SDS011;62813;51.424;6.762;2023-03-20T16:53:00;12.63;;;4.87;;
9007;SDS011;62813;51.424;6.762;2023-03-20T16:55:28;12.73;;;5.13;;
9007;SDS011;62813;51.424;6.762;2023-03-20T16:57:58;15.57;;;4.70;;
9007;SDS011;62813;51.424;6.762;2023-03-20T17:00:29;11.80;;;5.20;;
9007;SDS011;62813;51.424;6.762;2023-03-20T17:03:12;14.50;;;4.53;;
9007;SDS011;62813;51.424;6.762;2023-03-20T17:05:55;9.70;;;4.13;;
9007;SDS011;62813;51.424;6.762;2023-03-20T17:08:42;11.73;;;4.10;;
9007;SDS011;62813;51.424;6.762;2023-03-20T17:11:18;9.27;;;3.77;;
9007;SDS011;62813;51.424;6.762;2023-03-20T17:13:51;7.87;;;2.83;;
9007;SDS011;62813;51.424;6.762;2023-03-20T17:16:19;8.23;;;3.23;;
9007;SDS011;62813;51.424;6.762;2023-03-20T17:18:47;7.90;;;3.47;;
9007;SDS011;62813;51.424;6.762;2023-03-20T17:21:25;7.07;;;3.33;;
9007;SDS011;62813;51.424;6.762;2023-03-20T17:23:51;12.60;;;4.10;;
9007;SDS011;62813;51.424;6.762;2023-03-20T17:26:18;10.87;;;4.10;;
9007;SDS011;62813;51.424;6.762;2023-03-20T17:28:45;8.00;;;3.97;;
9007;SDS011;62813;51.424;6.762;2023-03-20T17:31:14;9.40;;;3.90;;
9007;SDS011;62813;51.424;6.762;2023-03-20T17:33:42;10.17;;;3.43;;
9007;SDS011;62813;51.424;6.762;2023-03-20T17:36:22;9.87;;;4.30;;
9007;SDS011;62813;51.424;6.762;2023-03-20T17:38:52;16.90;;;4.47;;
9007;SDS011;62813;51.424;6.762;2023-03-20T17:41:20;12.10;;;4.73;;
9007;SDS011;62813;51.424;6.762;2023-03-20T17:43:48;12.10;;;4.57;;
9007;SDS011;62813;51.424;6.762;2023-03-20T17:48:45;8.63;;;4.73;;